Time;durP1;ratioP1;P1;durP2;ratioP2;P2;SDS_P1;SDS_P2;PMS_P1;PMS_P2;Temp;Humidity;BMP_temperature;BMP_pressure;BME280_temperature;BME280_humidity;BME280_pressure;Samples;Min_cycle;Max_cycle;Signal;HPM_P1;HPM_P2
2023/10/04 00:02:19;;;;;;;11.10;2.63;;;13.80;1.00;;;;;;5055804;28;20447;-81
2023/10/04 00:04:45;;;;;;;10.20;3.20;;;13.80;99.90;;;;;;5051693;28;20206;-81
2023/10/04 00:07:10;;;;;;;6.80;2.33;;;13.70;1.00;;;;;;5059209;28;20961;-81
2023/10/04 00:09:36;;;;;;;9.53;2.90;;;13.70;1.00;;;;;;5058522;28;20717;-81
2023/10/04 00:12:02;;;;;;;9.83;3.40;;;13.70;1.00;;;;;;5059068;28;20252;-80
2023/10/04 00:14:27;;;;;;;5.97;3.00;;;13.70;64.90;;;;;;5049642;28;20566;-80
2023/10/04 00:16:54;;;;;;;15.10;3.13;;;13.60;99.90;;;;;;5059486;28;20181;-80
2023/10/04 00:19:20;;;;;;;8.83;3.07;;;13.60;99.90;;;;;;5049115;28;20174;-81
2023/10/04 00:21:45;;;;;;;11.70;2.70;;;13.60;99.90;;;;;;5038894;28;20452;-79
2023/10/04 00:24:11;;;;;;;5.90;2.73;;;13.60;99.90;;;;;;5059547;28;20539;-80
2023/10/04 00:26:37;;;;;;;8.03;2.60;;;13.60;99.90;;;;;;5060246;28;20182;-80
2023/10/04 00:29:06;;;;;;;10.50;2.73;;;13.60;99.90;;;;;;5054675;28;20196;-79
2023/10/04 00:31:33;;;;;;;10.33;3.27;;;13.60;1.00;;;;;;5046757;28;20675;-79
2023/10/04 00:33:58;;;;;;;11.07;2.60;;;13.60;1.00;;;;;;5054404;28;20486;-80
2023/10/04 00:36:24;;;;;;;8.57;2.50;;;13.60;1.00;;;;;;5055126;28;20826;-79
2023/10/04 00:38:50;;;;;;;13.37;3.23;;;13.60;1.00;;;;;;5052469;28;20212;-79
2023/10/04 00:41:16;;;;;;;7.90;3.13;;;13.50;1.00;;;;;;5028422;28;20193;-80
2023/10/04 00:43:51;;;;;;;9.10;2.83;;;13.50;1.00;;;;;;5054630;28;20922;-79
2023/10/04 00:46:21;;;;;;;10.17;2.60;;;13.50;1.00;;;;;;5036253;28;20472;-79
2023/10/04 00:48:47;;;;;;;8.97;2.30;;;13.50;25.50;;;;;;5054857;28;20844;-79
2023/10/04 00:51:14;;;;;;;8.70;2.40;;;13.50;26.60;;;;;;5054098;28;20555;-79
2023/10/04 00:53:40;;;;;;;10.67;2.90;;;13.50;99.90;;;;;;5054156;28;20667;-80
2023/10/04 00:56:08;;;;;;;9.37;2.77;;;13.50;99.90;;;;;;5055491;28;20466;-80
2023/10/04 00:58:34;;;;;;;6.20;3.07;;;13.50;99.90;;;;;;5057976;28;20507;-79
2023/10/04 01:01:00;;;;;;;7.37;2.70;;;13.40;99.90;;;;;;5058041;28;20508;-80
2023/10/04 01:03:32;;;;;;;9.13;2.63;;;13.40;99.90;;;;;;5048896;28;20519;-81
2023/10/04 01:06:00;;;;;;;9.33;3.00;;;13.40;99.90;;;;;;5050659;28;20413;-80
2023/10/04 01:08:25;;;;;;;14.77;2.80;;;13.40;99.90;;;;;;5057803;28;20412;-80
2023/10/04 01:10:54;;;;;;;11.37;2.90;;;13.40;99.90;;;;;;5048297;28;20470;-80
2023/10/04 01:13:22;;;;;;;9.10;3.13;;;13.40;99.90;;;;;;5050639;28;20206;-79
2023/10/04 01:15:55;;;;;;;6.90;2.00;;;13.40;99.90;;;;;;5057907;28;20448;-80
2023/10/04 01:18:22;;;;;;;9.40;3.10;;;13.40;99.90;;;;;;5057324;28;20416;-80
2023/10/04 01:20:49;;;;;;;9.30;2.50;;;13.40;99.90;;;;;;5057785;28;20412;-80
2023/10/04 01:23:15;;;;;;;10.73;2.73;;;13.40;99.90;;;;;;5057429;28;20440;-80
2023/10/04 01:25:43;;;;;;;7.33;2.20;;;13.40;99.90;;;;;;5057300;28;20507;-80
2023/10/04 01:28:13;;;;;;;6.83;2.80;;;13.40;99.90;;;;;;5057511;28;20421;-80
2023/10/04 01:30:43;;;;;;;9.37;2.80;;;13.40;99.90;;;;;;5051913;28;20441;-81
2023/10/04 01:33:16;;;;;;;6.83;2.90;;;13.40;99.90;;;;;;5044804;28;20448;-80
2023/10/04 01:35:42;;;;;;;17.10;3.43;;;13.40;99.90;;;;;;5042891;28;20455;-80
2023/10/04 01:38:08;;;;;;;7.37;2.73;;;13.40;99.90;;;;;;5049025;28;20421;-80
2023/10/04 01:40:35;;;;;;;8.70;2.50;;;13.30;99.90;;;;;;5054792;28;20558;-79
2023/10/04 01:43:15;;;;;;;6.57;2.57;;;13.30;99.90;;;;;;5035895;28;20208;-79
2023/10/04 01:45:43;;;;;;;12.53;2.60;;;13.30;99.90;;;;;;5036262;28;20470;-79
2023/10/04 01:48:09;;;;;;;10.17;2.40;;;13.30;99.90;;;;;;5041555;28;20443;-80
2023/10/04 01:50:34;;;;;;;6.70;2.77;;;13.30;99.90;;;;;;5052352;28;20436;-80
2023/10/04 01:53:01;;;;;;;8.07;3.20;;;13.30;99.90;;;;;;5056990;28;20206;-80
2023/10/04 01:55:26;;;;;;;7.13;2.50;;;13.30;99.90;;;;;;5056334;28;20198;-80
2023/10/04 01:57:52;;;;;;;9.77;2.40;;;13.30;1.00;;;;;;5040694;28;20437;-80
2023/10/04 02:00:20;;;;;;;7.97;2.50;;;13.30;99.90;;;;;;5055946;28;20182;-80
2023/10/04 02:02:47;;;;;;;6.20;3.20;;;13.30;1.00;;;;;;5057447;28;20198;-81
2023/10/04 02:05:18;;;;;;;6.07;2.60;;;13.30;1.00;;;;;;5056413;28;20425;-81
2023/10/04 02:07:44;;;;;;;7.13;2.67;;;13.30;1.00;;;;;;5036315;28;20440;-81
2023/10/04 02:10:11;;;;;;;12.33;3.20;;;13.40;1.00;;;;;;5056807;28;20433;-81
2023/10/04 02:12:36;;;;;;;10.60;2.90;;;13.40;99.90;;;;;;5037851;28;20232;-80
2023/10/04 02:15:03;;;;;;;10.07;2.53;;;13.40;99.90;;;;;;5057099;28;20423;-81
2023/10/04 02:17:29;;;;;;;11.57;3.03;;;13.40;99.90;;;;;;5056665;28;20178;-81
2023/10/04 02:19:54;;;;;;;9.13;2.53;;;13.40;99.90;;;;;;5057458;28;20429;-80
2023/10/04 02:22:20;;;;;;;12.53;3.30;;;13.40;99.90;;;;;;5056774;28;21043;-80
2023/10/04 02:24:47;;;;;;;12.03;3.50;;;13.40;99.90;;;;;;5053544;28;20296;-80
2023/10/04 02:27:14;;;;;;;4.80;2.87;;;13.40;99.90;;;;;;5056351;28;20841;-81
2023/10/04 02:29:44;;;;;;;7.30;2.60;;;13.40;99.90;;;;;;5056577;28;20420;-80
2023/10/04 02:32:09;;;;;;;7.20;2.63;;;13.40;99.90;;;;;;5056336;28;20459;-80
2023/10/04 02:34:38;;;;;;;9.50;2.43;;;13.40;99.90;;;;;;5056705;28;20441;-80
2023/10/04 02:37:06;;;;;;;10.00;3.80;;;13.40;99.90;;;;;;5048222;28;20624;-81
2023/10/04 02:39:33;;;;;;;11.03;4.10;;;13.40;99.90;;;;;;5035672;28;20479;-81
2023/10/04 02:41:59;;;;;;;7.27;2.53;;;13.40;99.90;;;;;;5049788;28;20463;-78
2023/10/04 02:44:25;;;;;;;12.30;2.70;;;13.40;99.90;;;;;;5057331;28;20444;-81
2023/10/04 02:46:51;;;;;;;9.83;2.90;;;13.40;1.00;;;;;;5056046;28;20436;-80
2023/10/04 02:49:16;;;;;;;14.23;4.47;;;13.40;99.90;;;;;;5039338;28;20655;-80
2023/10/04 02:51:44;;;;;;;10.43;2.20;;;13.40;99.90;;;;;;5038007;28;20513;-81
2023/10/04 02:54:10;;;;;;;14.67;4.43;;;13.40;99.90;;;;;;5056671;28;20205;-80
2023/10/04 02:56:41;;;;;;;9.40;2.33;;;13.30;99.90;;;;;;5056736;28;20412;-80
2023/10/04 02:59:07;;;;;;;9.90;2.80;;;13.40;99.90;;;;;;5055580;28;20239;-79
2023/10/04 03:01:32;;;;;;;9.93;2.60;;;13.40;99.90;;;;;;5038246;28;20440;-81
2023/10/04 03:03:58;;;;;;;14.17;3.47;;;13.40;99.90;;;;;;5056307;28;20214;-81
2023/10/04 03:06:24;;;;;;;16.23;4.50;;;13.30;99.90;;;;;;5038874;28;20201;-81
2023/10/04 03:08:55;;;;;;;9.13;2.93;;;13.30;99.90;;;;;;5048124;28;20204;-81
2023/10/04 03:11:20;;;;;;;10.50;2.80;;;13.30;1.00;;;;;;5048220;28;20475;-80
2023/10/04 03:13:47;;;;;;;13.30;3.90;;;13.30;99.90;;;;;;5054785;28;20469;-79
2023/10/04 03:16:12;;;;;;;11.83;2.50;;;13.30;99.90;;;;;;5054988;28;20201;-79
2023/10/04 03:18:39;;;;;;;8.00;2.60;;;13.30;99.90;;;;;;5049111;28;20697;-79
2023/10/04 03:23:35;;;;;;;13.50;2.57;;;13.30;1.00;;;;;;5057493;28;20452;-79
2023/10/04 03:26:03;;;;;;;9.40;2.23;;;13.30;1.00;;;;;;5056144;28;20656;-80
2023/10/04 03:28:33;;;;;;;9.00;2.43;;;13.30;1.00;;;;;;5057485;28;20420;-80
2023/10/04 03:31:03;;;;;;;11.60;2.37;;;13.30;1.00;;;;;;5055324;28;20468;-80
2023/10/04 03:33:31;;;;;;;6.90;2.57;;;13.20;1.00;;;;;;5057617;28;20448;-79
2023/10/04 03:35:58;;;;;;;17.07;3.17;;;13.20;1.00;;;;;;5049650;28;20420;-79
2023/10/04 03:38:25;;;;;;;11.40;3.30;;;13.20;1.00;;;;;;5057588;28;20416;-79
2023/10/04 03:40:51;;;;;;;11.30;2.70;;;13.20;1.00;;;;;;5057583;28;20416;-79
2023/10/04 03:43:17;;;;;;;6.33;2.10;;;13.20;1.00;;;;;;5056834;28;20486;-79
2023/10/04 03:45:43;;;;;;;15.13;3.17;;;13.20;1.00;;;;;;5057814;28;20421;-79
2023/10/04 03:48:15;;;;;;;7.60;2.57;;;13.20;1.00;;;;;;5057335;28;20683;-79
2023/10/04 03:50:48;;;;;;;7.00;2.50;;;13.20;1.00;;;;;;5039229;28;20182;-80
2023/10/04 03:53:15;;;;;;;13.13;2.93;;;13.20;1.00;;;;;;5057585;28;20444;-80
2023/10/04 03:55:44;;;;;;;8.77;2.20;;;13.20;1.00;;;;;;5057316;28;20427;-79
2023/10/04 03:58:11;;;;;;;7.20;2.77;;;13.20;1.00;;;;;;5057032;28;20436;-80
2023/10/04 04:00:38;;;;;;;8.93;3.03;;;13.10;1.00;;;;;;5058229;28;20934;-81
2023/10/04 04:03:04;;;;;;;9.03;2.77;;;13.10;1.00;;;;;;5059348;28;20973;-79
2023/10/04 04:05:32;;;;;;;13.20;2.60;;;13.10;1.00;;;;;;5057224;28;20984;-79
2023/10/04 04:07:58;;;;;;;9.80;2.70;;;13.10;1.00;;;;;;5057605;28;20490;-80
2023/10/04 04:10:24;;;;;;;8.67;2.60;;;13.00;1.00;;;;;;5058419;28;20417;-80
2023/10/04 04:12:50;;;;;;;9.90;2.40;;;13.00;1.00;;;;;;5058975;28;20464;-81
2023/10/04 04:15:17;;;;;;;10.77;3.20;;;13.00;1.00;;;;;;5041468;28;20416;-81
2023/10/04 04:17:45;;;;;;;16.80;3.50;;;13.00;1.00;;;;;;5058702;28;20488;-80
2023/10/04 04:20:19;;;;;;;11.37;2.77;;;13.00;1.00;;;;;;5058939;28;20444;-80
2023/10/04 04:22:55;;;;;;;13.20;3.50;;;12.90;1.00;;;;;;5057240;28;20964;-80
2023/10/04 04:25:25;;;;;;;7.80;3.03;;;12.90;1.00;;;;;;5039663;28;20837;-81
2023/10/04 04:27:52;;;;;;;9.67;3.00;;;12.90;1.00;;;;;;5057453;28;20875;-80
2023/10/04 04:30:20;;;;;;;7.47;2.97;;;12.80;1.00;;;;;;5050135;28;20425;-80
2023/10/04 04:32:52;;;;;;;10.30;3.00;;;12.80;1.00;;;;;;5050595;28;20842;-80
2023/10/04 04:38:17;;;;;;;11.93;2.93;;;12.80;1.00;;;;;;5010868;28;20420;-80
2023/10/04 04:40:44;;;;;;;12.67;2.80;;;12.80;1.00;;;;;;5055072;28;20432;-81
2023/10/04 04:45:53;;;;;;;5.53;2.33;;;12.70;1.00;;;;;;5051667;28;20815;-80
2023/10/04 04:48:35;;;;;;;11.33;3.03;;;12.70;1.00;;;;;;5040701;28;20463;-80
2023/10/04 04:51:10;;;;;;;7.33;2.47;;;12.70;1.00;;;;;;5058340;28;20550;-80
2023/10/04 04:53:42;;;;;;;7.47;2.97;;;12.60;1.00;;;;;;5047646;28;20455;-80
2023/10/04 04:56:12;;;;;;;7.97;2.40;;;12.60;1.00;;;;;;5059001;28;20437;-81
2023/10/04 04:58:47;;;;;;;10.47;3.70;;;12.60;1.00;;;;;;5055033;28;20448;-81
2023/10/04 05:01:12;;;;;;;10.53;2.70;;;12.60;1.00;;;;;;5059041;28;20411;-80
2023/10/04 05:03:42;;;;;;;11.07;3.93;;;12.50;1.00;;;;;;5049886;28;20481;-80
2023/10/04 05:06:13;;;;;;;11.40;3.63;;;12.60;1.00;;;;;;5046371;28;20186;-81
2023/10/04 05:08:40;;;;;;;15.83;3.60;;;12.50;1.00;;;;;;5058629;28;20452;-80
2023/10/04 05:11:06;;;;;;;12.77;3.40;;;12.50;1.00;;;;;;5056880;28;20468;-79
2023/10/04 05:13:32;;;;;;;9.50;2.87;;;12.50;1.00;;;;;;5033392;28;20457;-80
2023/10/04 05:15:59;;;;;;;6.20;3.20;;;12.50;1.00;;;;;;5058525;28;20826;-80
2023/10/04 05:18:26;;;;;;;16.33;3.20;;;12.50;1.00;;;;;;5057153;28;20284;-79
2023/10/04 05:20:55;;;;;;;15.00;3.30;;;12.50;1.00;;;;;;5040097;28;20587;-80
2023/10/04 05:23:25;;;;;;;12.47;3.10;;;12.50;1.00;;;;;;5050647;28;20499;-80
2023/10/04 05:25:52;;;;;;;14.73;2.90;;;12.40;1.00;;;;;;5053568;28;20454;-79
2023/10/04 05:28:19;;;;;;;7.30;3.13;;;12.40;1.00;;;;;;5040128;28;20416;-79
2023/10/04 05:30:46;;;;;;;11.30;3.80;;;12.40;1.00;;;;;;5038288;28;20492;-80
2023/10/04 05:33:15;;;;;;;9.47;3.00;;;12.40;1.00;;;;;;5057672;28;20444;-80
2023/10/04 05:35:44;;;;;;;10.40;3.27;;;12.40;1.00;;;;;;5057484;28;20413;-79
2023/10/04 05:38:12;;;;;;;9.07;3.80;;;12.40;1.00;;;;;;5057789;28;20427;-79
2023/10/04 05:40:38;;;;;;;15.10;3.40;;;12.40;1.00;;;;;;5039915;28;20477;-81
2023/10/04 05:43:08;;;;;;;16.27;5.27;;;12.40;1.00;;;;;;5057429;28;20456;-81
2023/10/04 05:45:34;;;;;;;11.47;3.50;;;12.50;1.00;;;;;;5037757;28;20441;-80
2023/10/04 05:48:00;;;;;;;13.60;3.60;;;12.50;1.00;;;;;;5057255;28;20812;-80
2023/10/04 05:50:32;;;;;;;11.20;2.70;;;12.50;1.00;;;;;;5044913;28;20431;-80
2023/10/04 05:53:00;;;;;;;8.83;3.60;;;12.50;1.00;;;;;;5057155;28;20214;-80
2023/10/04 05:55:26;;;;;;;16.73;4.67;;;12.50;1.00;;;;;;5054022;28;20507;-79
2023/10/04 05:57:52;;;;;;;16.33;4.40;;;12.60;1.00;;;;;;5058153;28;20464;-80
2023/10/04 06:00:33;;;;;;;13.37;3.47;;;12.70;1.00;;;;;;5057306;28;20532;-79
2023/10/04 06:03:04;;;;;;;14.97;3.50;;;12.80;1.00;;;;;;5053659;28;20455;-81
2023/10/04 06:05:32;;;;;;;13.03;2.87;;;12.90;1.00;;;;;;5049397;28;20965;-80
2023/10/04 06:07:59;;;;;;;13.10;3.40;;;13.00;99.90;;;;;;5057057;28;20773;-80
2023/10/04 06:10:25;;;;;;;7.57;2.93;;;13.10;99.90;;;;;;5058080;28;20443;-81
2023/10/04 06:12:55;;;;;;;46.37;8.07;;;13.30;99.90;;;;;;5057439;28;20464;-80
2023/10/04 06:15:22;;;;;;;19.63;3.43;;;13.40;99.90;;;;;;5049314;28;20443;-80
2023/10/04 06:17:47;;;;;;;13.70;3.20;;;13.60;99.90;;;;;;5048828;28;20424;-80
2023/10/04 06:20:33;;;;;;;21.07;5.47;;;13.70;26.50;;;;;;5054322;28;20805;-80
2023/10/04 06:23:01;;;;;;;39.90;6.40;;;13.90;1.00;;;;;;5050334;28;20480;-80
2023/10/04 06:25:29;;;;;;;24.87;5.57;;;14.10;99.90;;;;;;5052504;28;20416;-80
2023/10/04 06:27:56;;;;;;;20.60;3.33;;;14.20;42.40;;;;;;5057615;28;20428;-79
2023/10/04 06:30:27;;;;;;;18.17;5.40;;;14.40;99.90;;;;;;5057899;28;20431;-81
2023/10/04 06:32:59;;;;;;;11.67;3.60;;;14.50;1.00;;;;;;5057473;28;20464;-81
2023/10/04 06:35:25;;;;;;;8.30;2.70;;;15.00;99.90;;;;;;5057796;28;20421;-80
2023/10/04 06:37:56;;;;;;;41.00;6.10;;;16.60;99.90;;;;;;5047910;28;20498;-79
2023/10/04 06:40:23;;;;;;;13.70;3.70;;;18.20;30.70;;;;;;5056703;28;20725;-80
2023/10/04 06:42:50;;;;;;;10.00;3.40;;;19.60;1.00;;;;;;5055569;28;21034;-80
2023/10/04 06:45:17;;;;;;;14.83;2.83;;;20.80;99.90;;;;;;5037891;28;20503;-80
2023/10/04 06:47:44;;;;;;;9.37;2.80;;;21.90;99.90;;;;;;5055390;28;20519;-81
2023/10/04 06:50:20;;;;;;;10.80;2.53;;;23.10;99.90;;;;;;5055871;28;20421;-81
2023/10/04 06:52:47;;;;;;;8.63;3.50;;;23.80;99.90;;;;;;5055553;28;20468;-80
2023/10/04 06:55:13;;;;;;;10.20;2.93;;;24.70;99.90;;;;;;5050356;28;20795;-80
2023/10/04 06:57:39;;;;;;;9.90;3.20;;;25.20;99.90;;;;;;5055061;28;20470;-80
2023/10/04 07:00:15;;;;;;;7.07;2.17;;;25.80;99.90;;;;;;5055132;28;20429;-82
2023/10/04 07:02:45;;;;;;;10.57;3.00;;;26.30;99.90;;;;;;5055768;28;20906;-80
2023/10/04 07:05:19;;;;;;;9.37;2.70;;;27.00;99.90;;;;;;5057139;28;20424;-81
2023/10/04 07:07:46;;;;;;;8.97;3.13;;;27.50;99.90;;;;;;5058078;28;20423;-81
2023/10/04 07:10:15;;;;;;;9.67;3.20;;;28.10;99.90;;;;;;5040278;28;20424;-81
2023/10/04 07:12:45;;;;;;;9.43;2.50;;;28.70;99.90;;;;;;5055024;28;20471;-80
2023/10/04 07:15:12;;;;;;;5.23;2.27;;;29.30;99.90;;;;;;5058188;28;20478;-81
2023/10/04 07:17:41;;;;;;;8.50;2.60;;;29.70;99.90;;;;;;5038576;28;21055;-80
2023/10/04 07:20:14;;;;;;;8.30;2.73;;;30.20;99.90;;;;;;5056403;28;20434;-80
2023/10/04 07:22:44;;;;;;;10.53;2.53;;;30.70;99.90;;;;;;5038030;28;20457;-80
2023/10/04 07:25:14;;;;;;;7.10;2.90;;;31.00;99.90;;;;;;5055763;28;20421;-80
2023/10/04 07:27:43;;;;;;;7.77;2.17;;;31.50;99.90;;;;;;5056934;28;20421;-81
2023/10/04 07:30:13;;;;;;;10.90;2.87;;;31.80;99.90;;;;;;5039419;28;20432;-81
2023/10/04 07:32:42;;;;;;;7.63;2.00;;;32.40;99.90;;;;;;5048946;28;20457;-81
2023/10/04 07:35:13;;;;;;;13.43;3.63;;;32.90;99.90;;;;;;5036501;28;20831;-80
2023/10/04 07:37:43;;;;;;;8.40;2.70;;;33.20;99.90;;;;;;5057334;28;20428;-81
2023/10/04 07:40:11;;;;;;;7.17;2.63;;;33.60;99.90;;;;;;5057090;28;20880;-81
2023/10/04 07:42:41;;;;;;;8.60;2.73;;;33.60;99.90;;;;;;5055063;28;20440;-81
2023/10/04 07:45:08;;;;;;;11.93;2.80;;;33.80;99.90;;;;;;5058054;28;20423;-82
2023/10/04 07:47:37;;;;;;;18.13;2.93;;;34.10;99.90;;;;;;5049508;28;20487;-82
2023/10/04 07:50:11;;;;;;;12.10;3.10;;;34.00;99.90;;;;;;5047545;28;20435;-81
2023/10/04 07:52:37;;;;;;;7.93;3.10;;;34.70;99.90;;;;;;5054746;28;20464;-81
2023/10/04 07:55:05;;;;;;;33.10;4.83;;;34.80;99.90;;;;;;5044634;28;20425;-81
2023/10/04 07:57:31;;;;;;;8.60;2.73;;;35.20;99.90;;;;;;5056876;28;20441;-81
2023/10/04 07:59:57;;;;;;;9.33;3.13;;;35.40;99.90;;;;;;5053792;28;20471;-79
2023/10/04 08:02:23;;;;;;;18.27;3.97;;;36.20;99.90;;;;;;5038849;28;20420;-80
2023/10/04 08:04:48;;;;;;;5.63;2.50;;;36.00;99.90;;;;;;5060300;28;20184;-81
2023/10/04 08:07:15;;;;;;;31.07;5.43;;;36.00;99.90;;;;;;5060857;28;20190;-81
2023/10/04 08:09:41;;;;;;;9.73;3.10;;;36.00;99.90;;;;;;5060548;28;20174;-81
2023/10/04 08:12:09;;;;;;;5.60;2.43;;;35.80;99.90;;;;;;5042654;28;20494;-81
2023/10/04 08:14:35;;;;;;;16.27;3.90;;;35.90;99.90;;;;;;5061434;28;20200;-82
2023/10/04 08:17:01;;;;;;;17.00;3.60;;;35.70;99.90;;;;;;5057230;28;20500;-81
2023/10/04 08:19:27;;;;;;;8.10;2.73;;;35.90;99.90;;;;;;5042396;28;20184;-82
2023/10/04 08:21:52;;;;;;;9.97;3.03;;;35.90;99.90;;;;;;5061111;28;20185;-82
2023/10/04 08:24:20;;;;;;;9.50;3.40;;;36.20;99.90;;;;;;5060509;28;20718;-82
2023/10/04 08:26:48;;;;;;;9.80;3.10;;;36.00;99.80;;;;;;5060396;28;20217;-80
2023/10/04 08:29:14;;;;;;;8.57;2.77;;;36.20;99.20;;;;;;5060366;28;20956;-81
2023/10/04 08:31:39;;;;;;;15.37;3.97;;;36.10;99.90;;;;;;5059926;28;20464;-81
2023/10/04 08:34:05;;;;;;;16.97;4.40;;;36.60;98.10;;;;;;5057563;28;20205;-82
2023/10/04 08:36:33;;;;;;;7.90;3.10;;;36.80;97.20;;;;;;5060572;28;20178;-81
2023/10/04 08:39:00;;;;;;;6.73;2.70;;;36.70;96.40;;;;;;5060146;28;20174;-81
2023/10/04 08:41:27;;;;;;;6.87;2.43;;;36.30;94.20;;;;;;5060422;28;20417;-82
2023/10/04 08:43:52;;;;;;;6.17;2.47;;;35.90;92.70;;;;;;5042703;28;20483;-81
2023/10/04 08:46:19;;;;;;;6.93;2.80;;;35.70;92.10;;;;;;5060896;28;20421;-81
2023/10/04 08:48:53;;;;;;;10.67;2.90;;;35.70;91.20;;;;;;5060973;28;20571;-81
2023/10/04 08:51:39;;;;;;;6.90;2.97;;;35.60;91.00;;;;;;5055911;28;20467;-81
2023/10/04 08:54:13;;;;;;;11.20;3.00;;;35.40;89.60;;;;;;5058680;28;20809;-80
2023/10/04 08:56:55;;;;;;;7.07;2.83;;;35.20;89.50;;;;;;5058454;28;20416;-80
2023/10/04 08:59:24;;;;;;;7.03;2.70;;;34.80;86.50;;;;;;5051695;28;20428;-81
2023/10/04 09:01:50;;;;;;;9.23;3.60;;;35.20;87.10;;;;;;5049663;28;20428;-80
2023/10/04 09:04:18;;;;;;;7.47;3.47;;;34.50;81.70;;;;;;5057133;28;20428;-80
2023/10/04 09:06:44;;;;;;;8.63;2.73;;;34.50;83.80;;;;;;5056940;28;20852;-79
2023/10/04 09:09:14;;;;;;;8.20;2.80;;;34.40;82.70;;;;;;5058314;28;20463;-80
2023/10/04 09:11:41;;;;;;;16.27;4.13;;;34.40;83.80;;;;;;5040134;28;20517;-80
2023/10/04 09:14:07;;;;;;;10.43;3.83;;;34.20;81.30;;;;;;5049454;28;20494;-81
2023/10/04 09:16:32;;;;;;;10.57;3.03;;;34.30;82.60;;;;;;5039980;28;20428;-81
2023/10/04 09:19:08;;;;;;;7.53;2.80;;;34.30;83.40;;;;;;5049100;28;20441;-80
2023/10/04 09:21:38;;;;;;;10.67;3.90;;;34.80;88.00;;;;;;5056490;28;20204;-80
2023/10/04 09:24:08;;;;;;;11.93;3.60;;;35.20;97.60;;;;;;5045221;28;20955;-80
2023/10/04 09:26:49;;;;;;;10.33;2.80;;;35.20;87.20;;;;;;5055868;28;20439;-80
2023/10/04 09:29:27;;;;;;;7.17;2.93;;;35.30;87.10;;;;;;5048065;28;20442;-80
2023/10/04 09:31:55;;;;;;;8.63;3.57;;;35.40;87.50;;;;;;5036770;28;20472;-80
2023/10/04 09:34:23;;;;;;;5.97;2.57;;;35.90;90.70;;;;;;5055180;28;20574;-80
2023/10/04 09:36:54;;;;;;;9.83;3.20;;;36.60;92.90;;;;;;5058709;28;20856;-81
2023/10/04 09:39:25;;;;;;;7.63;3.07;;;36.70;92.30;;;;;;5059797;28;20440;-81
2023/10/04 09:41:52;;;;;;;9.63;3.13;;;36.90;98.80;;;;;;5055636;28;20440;-81
2023/10/04 09:44:25;;;;;;;12.80;3.90;;;36.70;89.70;;;;;;5059502;28;20472;-81
2023/10/04 09:47:00;;;;;;;7.40;3.13;;;35.90;80.10;;;;;;5055909;28;20455;-81
2023/10/04 09:49:36;;;;;;;12.50;3.80;;;35.30;79.20;;;;;;5059344;28;20427;-81
2023/10/04 09:52:06;;;;;;;10.00;3.43;;;35.20;77.20;;;;;;5055689;28;20455;-80
2023/10/04 09:54:33;;;;;;;10.00;3.43;;;34.60;71.60;;;;;;5055648;28;20785;-79
2023/10/04 09:57:01;;;;;;;10.83;3.07;;;34.20;70.10;;;;;;5055026;28;20505;-80
2023/10/04 09:59:28;;;;;;;9.20;3.30;;;33.80;68.40;;;;;;5039813;28;20510;-80
2023/10/04 10:01:56;;;;;;;6.57;2.80;;;33.80;69.30;;;;;;5055336;28;20482;-80
2023/10/04 10:04:27;;;;;;;13.13;3.27;;;33.90;70.60;;;;;;5053270;28;20456;-80
2023/10/04 10:07:09;;;;;;;9.43;2.93;;;33.40;67.80;;;;;;5056831;28;20443;-80
2023/10/04 10:09:38;;;;;;;7.50;2.87;;;33.10;66.10;;;;;;5057509;28;20428;-81
2023/10/04 10:12:04;;;;;;;9.17;2.80;;;33.10;67.90;;;;;;5056698;28;20478;-80
2023/10/04 10:14:32;;;;;;;7.10;3.30;;;32.50;65.70;;;;;;5057270;28;20519;-80
2023/10/04 10:16:57;;;;;;;8.87;3.23;;;32.20;66.20;;;;;;5058373;28;20592;-80
2023/10/04 10:19:23;;;;;;;12.57;3.20;;;31.70;64.40;;;;;;5059181;28;20463;-81
2023/10/04 10:22:02;;;;;;;6.93;3.00;;;31.40;65.30;;;;;;5055625;28;20206;-82
2023/10/04 10:24:27;;;;;;;7.67;3.03;;;31.30;65.50;;;;;;5040845;28;20473;-81
2023/10/04 10:27:08;;;;;;;10.23;3.20;;;31.00;66.20;;;;;;5056678;28;20933;-80
2023/10/04 10:29:36;;;;;;;6.37;3.10;;;30.70;66.80;;;;;;5058547;28;20199;-81
2023/10/04 10:32:06;;;;;;;10.53;2.80;;;30.50;66.50;;;;;;5057872;28;20943;-81
2023/10/04 10:34:31;;;;;;;7.63;3.73;;;30.30;68.80;;;;;;5057509;28;20462;-81
2023/10/04 10:37:18;;;;;;;7.70;3.37;;;30.30;70.80;;;;;;5055534;28;20440;-80
2023/10/04 10:39:46;;;;;;;9.10;3.97;;;30.20;70.90;;;;;;5056374;28;20192;-81
2023/10/04 10:42:12;;;;;;;11.10;4.10;;;29.90;70.80;;;;;;5054756;28;20427;-80
2023/10/04 10:44:41;;;;;;;6.63;3.20;;;29.70;70.00;;;;;;5055562;28;20987;-80
2023/10/04 10:47:15;;;;;;;8.80;3.90;;;29.40;71.00;;;;;;5054354;28;20425;-79
2023/10/04 10:49:44;;;;;;;10.00;3.90;;;29.40;73.50;;;;;;5055064;28;20945;-80
2023/10/04 10:52:26;;;;;;;10.67;3.57;;;29.60;75.10;;;;;;5054621;28;20484;-79
2023/10/04 10:54:56;;;;;;;8.23;3.60;;;29.20;74.40;;;;;;5051889;28;20436;-79
2023/10/04 10:57:30;;;;;;;15.13;4.40;;;28.60;73.90;;;;;;5046992;28;20434;-79
2023/10/04 10:59:57;;;;;;;5.13;2.87;;;28.40;75.00;;;;;;5055170;28;20415;-80
2023/10/04 11:02:25;;;;;;;9.77;3.70;;;28.00;76.10;;;;;;5054101;28;21023;-80
2023/10/04 11:04:52;;;;;;;7.67;3.77;;;28.10;78.10;;;;;;5054010;28;20422;-79
2023/10/04 11:07:22;;;;;;;11.07;2.93;;;28.10;77.90;;;;;;5054406;28;20982;-80
2023/10/04 11:09:55;;;;;;;6.60;3.53;;;27.80;77.70;;;;;;5036647;28;20440;-80
2023/10/04 11:12:22;;;;;;;9.50;3.30;;;27.40;78.70;;;;;;5050802;28;20477;-79
2023/10/04 11:14:50;;;;;;;7.10;2.93;;;27.30;80.60;;;;;;5053990;28;20440;-80
2023/10/04 11:17:16;;;;;;;9.47;4.17;;;27.30;82.80;;;;;;5044156;28;20441;-80
2023/10/04 11:19:44;;;;;;;7.30;2.80;;;27.30;84.10;;;;;;5036697;28;20421;-79
2023/10/04 11:22:11;;;;;;;11.90;4.13;;;27.60;86.90;;;;;;5055649;28;20450;-80
2023/10/04 11:24:39;;;;;;;9.67;3.30;;;27.40;86.90;;;;;;5057578;28;20456;-80
2023/10/04 11:27:05;;;;;;;11.60;4.70;;;27.30;88.00;;;;;;5053686;28;21242;-79
2023/10/04 11:29:33;;;;;;;9.97;4.13;;;27.00;86.40;;;;;;5056551;28;20433;-81
2023/10/04 11:31:58;;;;;;;13.67;4.37;;;27.00;86.90;;;;;;5056266;28;20531;-81
2023/10/04 11:34:28;;;;;;;10.67;3.97;;;26.80;88.50;;;;;;5057466;28;20450;-81
2023/10/04 11:37:00;;;;;;;10.73;4.37;;;26.90;90.40;;;;;;5057352;28;20174;-79
2023/10/04 11:39:33;;;;;;;9.93;3.60;;;26.60;90.70;;;;;;5060445;28;20503;-80
2023/10/04 11:42:03;;;;;;;13.03;4.87;;;26.10;90.50;;;;;;5041732;28;20428;-80
2023/10/04 11:44:30;;;;;;;10.23;5.10;;;25.80;90.80;;;;;;5057945;28;20460;-80
2023/10/04 11:47:04;;;;;;;9.27;4.10;;;25.60;90.70;;;;;;5060720;28;20413;-79
2023/10/04 11:49:33;;;;;;;10.30;3.87;;;25.30;90.90;;;;;;5060293;28;20491;-80
2023/10/04 11:52:01;;;;;;;12.03;5.03;;;25.30;91.50;;;;;;5059463;28;20475;-80
2023/10/04 11:54:40;;;;;;;10.37;4.00;;;25.30;91.80;;;;;;5060036;28;20444;-80
2023/10/04 11:57:06;;;;;;;9.90;4.57;;;25.60;92.90;;;;;;5059816;28;20428;-80
2023/10/04 11:59:33;;;;;;;11.53;5.47;;;25.80;93.90;;;;;;5060001;28;20830;-82
2023/10/04 12:02:00;;;;;;;10.43;4.70;;;26.00;94.70;;;;;;5051633;28;20445;-81
2023/10/04 12:04:26;;;;;;;12.00;4.90;;;26.20;95.10;;;;;;5051929;28;20440;-80
2023/10/04 12:07:06;;;;;;;10.43;4.20;;;26.20;94.50;;;;;;5058754;28;20792;-79
2023/10/04 12:09:33;;;;;;;11.07;4.87;;;26.10;94.70;;;;;;5042021;28;20438;-81
2023/10/04 12:12:02;;;;;;;8.67;4.30;;;26.10;94.60;;;;;;5059320;28;20466;-81
2023/10/04 12:14:27;;;;;;;8.37;3.83;;;26.30;95.80;;;;;;5059743;28;20444;-79
2023/10/04 12:16:53;;;;;;;10.63;4.53;;;26.30;96.10;;;;;;5059898;28;20419;-79
2023/10/04 12:19:19;;;;;;;12.80;5.77;;;26.40;95.30;;;;;;5054809;28;20195;-80
2023/10/04 12:21:44;;;;;;;7.50;4.10;;;26.30;95.30;;;;;;5057044;28;20186;-79
2023/10/04 12:24:10;;;;;;;9.93;4.87;;;26.30;95.60;;;;;;5055337;28;20642;-79
2023/10/04 12:26:36;;;;;;;12.20;4.97;;;26.40;95.70;;;;;;5049061;28;20183;-79
2023/10/04 12:29:07;;;;;;;9.70;4.13;;;26.30;95.90;;;;;;5055897;28;20563;-78
2023/10/04 12:31:33;;;;;;;10.10;4.53;;;26.20;95.40;;;;;;5038430;28;20456;-77
2023/10/04 12:33:59;;;;;;;7.43;3.70;;;26.00;96.00;;;;;;5036287;28;20440;-79
2023/10/04 12:36:25;;;;;;;13.53;4.60;;;26.00;95.60;;;;;;5052244;28;20671;-80
2023/10/04 12:38:54;;;;;;;6.87;3.70;;;25.90;96.00;;;;;;5050746;28;20227;-79
2023/10/04 12:41:20;;;;;;;14.40;5.57;;;25.70;96.10;;;;;;5055872;28;20858;-79
2023/10/04 12:43:45;;;;;;;10.07;4.90;;;25.50;96.00;;;;;;5055399;28;20463;-78
2023/10/04 12:46:11;;;;;;;11.50;4.23;;;25.30;95.40;;;;;;5055538;28;20420;-78
2023/10/04 12:48:36;;;;;;;8.83;4.37;;;25.20;99.70;;;;;;5054402;28;20185;-79
2023/10/04 12:51:02;;;;;;;11.27;5.10;;;24.80;94.80;;;;;;5055190;28;20261;-79
2023/10/04 12:53:28;;;;;;;10.20;4.70;;;24.70;95.00;;;;;;5051173;28;20289;-78
2023/10/04 12:55:54;;;;;;;11.50;4.37;;;24.50;95.60;;;;;;5054685;28;20186;-79
2023/10/04 12:58:20;;;;;;;8.57;4.90;;;24.40;96.20;;;;;;5036759;28;20251;-79
2023/10/04 13:00:50;;;;;;;9.60;4.00;;;24.30;96.80;;;;;;5054884;28;20421;-79